Terminal Aerodrome Forecast
Issued by NWS

Home | Current Version | Previous Version | Text Only | Print | Product List | Glossary Off
Versions: 1 2 3 4 5 6 7 8 9 10 11 12 13 14 15 16 17 18 19 20 21 22 23 24 25 26 27 28 29 30 31 32 33 34

000
FTUS43 KGRB 310900 AAA
TAFRHI
TAF AMD
KRHI 310917Z 3109/0106 VRB02KT 1/4SM FG VV001
      TEMPO 3111/3113 1SM BR BKN003
     FM311300 30006KT P6SM SCT030 SCT100=

USA.gov is the U.S. government's official web portal to all federal, state and local government web resources and services.